createdAt,value
2022-10-30T00:02:09.440Z,100368.31
2022-10-30T00:07:11.148Z,100362.03
2022-10-30T00:12:12.733Z,100357.00
2022-10-30T00:17:14.644Z,100360.59
2022-10-30T00:22:16.240Z,100354.94
2022-10-30T00:27:18.071Z,100352.44
2022-10-30T00:32:19.630Z,100352.03
2022-10-30T00:37:21.208Z,100348.25
2022-10-30T00:42:22.836Z,100351.31
2022-10-30T00:47:38.009Z,100342.13
2022-10-30T00:52:44.550Z,100349.19
2022-10-30T00:57:47.436Z,100334.97
2022-10-30T01:02:50.556Z,100328.78
2022-10-30T01:07:52.079Z,100327.22
2022-10-30T01:12:56.363Z,100314.91
2022-10-30T01:18:31.269Z,100315.22
2022-10-30T01:23:56.139Z,100304.44
2022-10-30T01:29:25.948Z,100296.06
2022-10-30T01:34:35.317Z,100300.31
2022-10-30T01:39:39.802Z,100297.13
2022-10-30T01:44:41.509Z,100292.44
2022-10-30T01:50:16.945Z,100291.84
2022-10-30T01:55:31.146Z,100291.91
2022-10-30T02:00:32.912Z,100292.88
2022-10-30T02:05:42.933Z,100300.34
2022-10-30T02:10:47.995Z,100293.97
2022-10-30T02:15:50.365Z,100289.41
2022-10-30T02:20:53.861Z,100286.34
2022-10-30T02:25:55.571Z,100293.59
2022-10-30T02:30:57.489Z,100285.44
2022-10-30T02:35:59.488Z,100275.41
2022-10-30T02:41:01.065Z,100278.34
2022-10-30T02:46:03.738Z,100286.63
2022-10-30T02:51:05.411Z,100276.19
2022-10-30T02:56:09.472Z,100275.72
2022-10-30T03:01:17.330Z,100279.03
2022-10-30T03:06:19.175Z,100276.84
2022-10-30T03:11:21.158Z,100269.94
2022-10-30T03:16:31.920Z,100268.63
2022-10-30T03:21:35.292Z,100271.31
2022-10-30T03:26:36.867Z,100288.09
2022-10-30T03:31:41.063Z,100279.44
2022-10-30T03:36:47.136Z,100275.22
2022-10-30T03:41:49.114Z,100281.41
2022-10-30T03:46:50.638Z,100282.19
2022-10-30T03:52:03.882Z,100280.81
2022-10-30T03:57:05.938Z,100275.56
2022-10-30T04:02:34.830Z,100273.69
2022-10-30T04:07:36.551Z,100284.06
2022-10-30T04:12:38.317Z,100275.50
2022-10-30T04:17:39.865Z,100273.88
2022-10-30T04:22:41.628Z,100264.31
2022-10-30T04:27:44.392Z,100253.78
2022-10-30T04:32:47.673Z,100245.44
2022-10-30T04:38:10.442Z,100249.81
2022-10-30T04:43:13.288Z,100245.69
2022-10-30T04:48:17.385Z,100238.53
2022-10-30T04:53:19.571Z,100243.50
2022-10-30T04:58:24.107Z,100236.13
2022-10-30T05:03:40.192Z,100246.78
2022-10-30T05:08:48.927Z,100239.31
2022-10-30T05:14:06.202Z,100236.53
2022-10-30T05:19:08.367Z,100234.28
2022-10-30T05:24:10.162Z,100229.72
2022-10-30T05:29:18.454Z,100226.81
2022-10-30T05:34:20.084Z,100234.34
2022-10-30T05:39:25.392Z,100232.75
2022-10-30T05:44:40.768Z,100237.03
2022-10-30T05:49:48.938Z,100238.69
2022-10-30T05:54:54.346Z,100234.28
2022-10-30T06:00:05.320Z,100244.78
2022-10-30T06:05:16.902Z,100233.13
2022-10-30T06:10:18.799Z,100237.59
2022-10-30T06:15:38.100Z,100234.50
2022-10-30T06:20:39.819Z,100242.41
2022-10-30T06:26:13.765Z,100244.72
2022-10-30T06:36:25.494Z,100252.22
2022-10-30T06:41:30.564Z,100268.56
2022-10-30T06:46:58.237Z,100263.03
2022-10-30T06:51:59.818Z,100274.72
2022-10-30T06:57:01.981Z,100280.75
2022-10-30T07:02:29.490Z,100272.41
2022-10-30T07:07:36.698Z,100275.16
2022-10-30T07:12:38.409Z,100275.00
2022-10-30T07:17:58.942Z,100279.66
2022-10-30T07:23:01.800Z,100282.38
2022-10-30T07:28:03.756Z,100272.25
2022-10-30T07:33:11.626Z,100278.16
2022-10-30T07:38:49.663Z,100267.19
2022-10-30T07:44:02.973Z,100276.78
2022-10-30T07:49:30.776Z,100275.78
2022-10-30T07:54:36.626Z,100292.84
2022-10-30T07:59:56.963Z,100285.84
2022-10-30T08:05:17.222Z,100276.19
2022-10-30T08:10:41.120Z,100279.88
2022-10-30T08:15:43.122Z,100288.47
2022-10-30T08:20:50.440Z,100283.06
2022-10-30T08:25:52.254Z,100280.03
2022-10-30T08:30:54.154Z,100276.75
2022-10-30T08:36:08.848Z,100275.25
2022-10-30T08:41:10.462Z,100283.94
2022-10-30T08:46:18.836Z,100259.44
2022-10-30T08:51:21.018Z,100268.88
2022-10-30T08:56:22.620Z,100266.50
2022-10-30T09:01:37.202Z,100256.09
2022-10-30T09:06:53.808Z,100258.88
2022-10-30T09:12:16.965Z,100253.19
2022-10-30T09:17:20.524Z,100272.66
2022-10-30T09:22:22.558Z,100262.94
2022-10-30T09:27:24.660Z,100260.38
2022-10-30T09:32:30.266Z,100262.28
2022-10-30T09:37:40.774Z,100269.63
2022-10-30T09:42:50.860Z,100269.00
2022-10-30T09:48:08.462Z,100268.09
2022-10-30T09:53:48.720Z,100277.22
2022-10-30T09:59:08.641Z,100282.66
2022-10-30T10:04:30.537Z,100281.97
2022-10-30T10:09:49.735Z,100283.88
2022-10-30T10:15:16.957Z,100270.13
2022-10-30T10:20:35.883Z,100274.78
2022-10-30T10:25:41.615Z,100276.47
2022-10-30T10:31:21.679Z,100269.63
2022-10-30T10:36:43.566Z,100281.34
2022-10-30T10:41:55.716Z,100275.00
2022-10-30T10:47:27.757Z,100271.50
2022-10-30T10:52:43.671Z,100271.56
2022-10-30T10:57:46.833Z,100264.03
2022-10-30T11:02:51.998Z,100263.78
2022-10-30T11:07:59.631Z,100272.59
2022-10-30T11:13:01.805Z,100271.16
2022-10-30T11:18:08.265Z,100250.47
2022-10-30T11:23:38.731Z,100254.56
2022-10-30T11:28:50.980Z,100244.63
2022-10-30T11:33:52.656Z,100242.50
2022-10-30T11:39:08.984Z,100243.59
2022-10-30T11:44:11.478Z,100241.09
2022-10-30T11:49:41.132Z,100236.63
2022-10-30T11:54:48.908Z,100241.19
2022-10-30T11:59:54.398Z,100234.22
2022-10-30T12:05:01.327Z,100222.09
2022-10-30T12:10:04.517Z,100221.84
2022-10-30T12:15:21.446Z,100225.25
2022-10-30T12:20:23.182Z,100223.84
2022-10-30T12:25:32.285Z,100219.91
2022-10-30T12:30:41.791Z,100216.16
2022-10-30T12:35:58.392Z,100223.53
2022-10-30T12:41:32.588Z,100213.34
2022-10-30T12:46:42.542Z,100214.84
2022-10-30T12:51:54.116Z,100202.63
2022-10-30T12:57:15.744Z,100195.69
2022-10-30T13:02:42.930Z,100201.81
2022-10-30T13:08:02.223Z,100197.09
2022-10-30T13:13:12.902Z,100194.94
2022-10-30T13:18:26.880Z,100198.91
2022-10-30T13:23:47.292Z,100198.13
2022-10-30T13:29:07.540Z,100186.97
2022-10-30T13:34:50.324Z,100191.66
2022-10-30T13:40:05.556Z,100181.25
2022-10-30T13:45:32.428Z,100178.50
2022-10-30T13:51:13.029Z,100171.16
2022-10-30T13:56:18.593Z,100178.03
2022-10-30T14:01:32.467Z,100185.34
2022-10-30T14:06:46.385Z,100187.59
2022-10-30T14:11:48.113Z,100188.81
2022-10-30T14:17:17.034Z,100187.34
2022-10-30T14:22:24.907Z,100184.72
2022-10-30T14:27:33.463Z,100182.63
2022-10-30T14:32:38.610Z,100179.00
2022-10-30T14:37:40.281Z,100183.47
2022-10-30T14:42:52.588Z,100189.25
2022-10-30T14:48:15.129Z,100193.34
2022-10-30T14:53:28.929Z,100184.97
2022-10-30T14:58:34.366Z,100192.19
2022-10-30T15:03:44.173Z,100190.97
2022-10-30T15:08:54.951Z,100196.06
2022-10-30T15:14:00.763Z,100189.16
2022-10-30T15:19:08.101Z,100191.22
2022-10-30T15:24:17.192Z,100193.78
2022-10-30T15:29:22.605Z,100200.13
2022-10-30T15:34:26.156Z,100205.88
2022-10-30T15:39:27.872Z,100210.13
2022-10-30T15:44:33.298Z,100206.81
2022-10-30T15:49:41.377Z,100207.56
2022-10-30T15:54:46.064Z,100204.34
2022-10-30T15:59:56.369Z,100209.78
2022-10-30T16:04:58.245Z,100214.38
2022-10-30T16:10:02.913Z,100206.81
2022-10-30T16:15:08.813Z,100209.63
2022-10-30T16:20:11.985Z,100216.47
2022-10-30T16:25:17.489Z,100220.28
2022-10-30T16:30:19.304Z,100216.13
2022-10-30T16:35:24.399Z,100218.41
2022-10-30T16:40:28.628Z,100217.56
2022-10-30T16:45:33.942Z,100209.91
2022-10-30T16:50:38.262Z,100217.53
2022-10-30T16:55:40.207Z,100213.84
2022-10-30T17:01:02.315Z,100214.44
2022-10-30T17:06:44.765Z,100218.78
2022-10-30T17:12:01.063Z,100222.78
2022-10-30T17:17:02.876Z,100220.03
2022-10-30T17:22:13.977Z,100223.75
2022-10-30T17:27:36.271Z,100221.31
2022-10-30T17:32:45.164Z,100231.94
2022-10-30T17:37:46.926Z,100226.69
2022-10-30T17:42:49.666Z,100242.81
2022-10-30T17:47:51.506Z,100235.25
2022-10-30T17:52:53.079Z,100230.97
2022-10-30T17:57:54.721Z,100240.19
2022-10-30T18:02:56.549Z,100234.69
2022-10-30T18:07:59.222Z,100237.69
2022-10-30T18:13:01.254Z,100238.78
2022-10-30T18:18:03.702Z,100240.16
2022-10-30T18:23:38.780Z,100236.59
2022-10-30T18:28:41.317Z,100242.91
2022-10-30T18:33:43.406Z,100243.97
2022-10-30T18:38:45.017Z,100239.44
2022-10-30T18:43:47.198Z,100246.38
2022-10-30T18:48:49.178Z,100237.97
2022-10-30T18:53:52.090Z,100241.72
2022-10-30T18:58:58.648Z,100234.25
2022-10-30T19:04:05.864Z,100228.06
2022-10-30T19:09:07.477Z,100240.34
2022-10-30T19:14:12.510Z,100243.91
2022-10-30T19:19:15.075Z,100231.09
2022-10-30T19:24:17.937Z,100244.31
2022-10-30T19:29:20.094Z,100248.44
2022-10-30T19:34:21.748Z,100255.94
2022-10-30T19:39:23.463Z,100256.44
2022-10-30T19:44:25.083Z,100250.91
2022-10-30T19:49:26.820Z,100257.94
2022-10-30T19:54:28.498Z,100248.09
2022-10-30T19:59:30.047Z,100251.94
2022-10-30T20:04:31.726Z,100256.50
2022-10-30T20:09:33.529Z,100261.16
2022-10-30T20:14:35.364Z,100259.00
2022-10-30T20:19:37.166Z,100262.97
2022-10-30T20:24:38.767Z,100253.66
2022-10-30T20:29:43.442Z,100264.19
2022-10-30T20:34:45.089Z,100254.03
2022-10-30T20:39:51.690Z,100273.38
2022-10-30T20:44:53.549Z,100271.91
2022-10-30T20:49:55.243Z,100265.63
2022-10-30T20:54:57.245Z,100269.53
2022-10-30T20:59:59.066Z,100273.56
2022-10-30T21:05:11.506Z,100271.69
2022-10-30T21:10:26.509Z,100280.66
2022-10-30T21:15:30.997Z,100283.53
2022-10-30T21:20:32.637Z,100278.44
2022-10-30T21:25:34.787Z,100295.91
2022-10-30T21:30:36.652Z,100283.66
2022-10-30T21:35:38.289Z,100283.03
2022-10-30T21:40:40.726Z,100290.91
2022-10-30T21:45:43.001Z,100293.00
2022-10-30T21:50:44.604Z,100290.19
2022-10-30T21:55:46.305Z,100292.56
2022-10-30T22:00:48.437Z,100301.50
2022-10-30T22:05:50.235Z,100293.41
2022-10-30T22:10:51.812Z,100293.72
2022-10-30T22:15:56.189Z,100295.25
2022-10-30T22:21:03.960Z,100293.66
2022-10-30T22:26:09.362Z,100291.28
2022-10-30T22:31:17.205Z,100292.91
2022-10-30T22:36:25.890Z,100302.78
2022-10-30T22:41:32.900Z,100296.38
2022-10-30T22:46:39.104Z,100303.84
2022-10-30T22:51:41.072Z,100303.78
2022-10-30T22:56:42.995Z,100312.75
2022-10-30T23:01:45.062Z,100313.59
2022-10-30T23:06:47.048Z,100327.66
2022-10-30T23:11:49.764Z,100324.41
2022-10-30T23:16:52.039Z,100325.56
2022-10-30T23:21:58.049Z,100319.97
2022-10-30T23:26:59.665Z,100330.59
2022-10-30T23:32:01.457Z,100327.72
2022-10-30T23:37:03.182Z,100328.00
2022-10-30T23:42:05.324Z,100327.50
2022-10-30T23:47:06.959Z,100336.97
2022-10-30T23:52:08.798Z,100338.19
2022-10-30T23:57:10.561Z,100329.78
